createdAt,value
2019-05-03T00:01:38.785Z,35.68
2019-05-03T00:04:04.887Z,35.68
2019-05-03T00:06:32.105Z,35.67
2019-05-03T00:08:58.274Z,35.68
2019-05-03T00:11:24.295Z,35.71
2019-05-03T00:13:52.446Z,35.72
2019-05-03T00:16:22.842Z,35.71
2019-05-03T00:18:48.988Z,35.72
2019-05-03T00:21:15.082Z,35.73
2019-05-03T00:23:41.799Z,35.73
2019-05-03T00:26:08.051Z,35.73
2019-05-03T00:28:34.151Z,35.74
2019-05-03T00:31:01.977Z,35.71
2019-05-03T00:33:28.173Z,35.75
2019-05-03T00:36:12.958Z,35.73
2019-05-03T00:38:39.110Z,35.73
2019-05-03T00:41:05.221Z,35.72
2019-05-03T00:43:31.801Z,35.71
2019-05-03T00:45:57.890Z,35.72
2019-05-03T00:48:23.896Z,35.73
2019-05-03T00:50:51.794Z,35.73
2019-05-03T00:53:18.014Z,35.74
2019-05-03T00:55:43.927Z,35.73
2019-05-03T00:58:11.654Z,35.73
2019-05-03T01:00:38.055Z,35.73
2019-05-03T01:03:04.162Z,35.72
2019-05-03T01:05:30.207Z,35.71
2019-05-03T01:07:56.317Z,35.72
2019-05-03T01:10:22.707Z,35.72
2019-05-03T01:12:48.966Z,35.71
2019-05-03T01:15:29.361Z,35.71
2019-05-03T01:17:55.668Z,35.71
2019-05-03T01:20:22.532Z,35.69
2019-05-03T01:22:48.672Z,35.68
2019-05-03T01:25:14.802Z,35.69
2019-05-03T01:27:42.743Z,35.68
2019-05-03T01:30:09.481Z,35.67
2019-05-03T01:32:35.496Z,35.69
2019-05-03T01:35:03.198Z,35.66
2019-05-03T01:37:29.610Z,35.64
2019-05-03T01:39:55.656Z,35.64
2019-05-03T01:42:22.609Z,35.62
2019-05-03T01:44:48.694Z,35.59
2019-05-03T01:47:16.739Z,35.57
2019-05-03T01:49:44.555Z,35.58
2019-05-03T01:52:15.359Z,35.57
2019-05-03T01:54:42.686Z,35.54
2019-05-03T01:57:08.909Z,35.51
2019-05-03T01:59:34.812Z,35.51
2019-05-03T02:02:07.392Z,35.52
2019-05-03T02:04:44.169Z,35.49
2019-05-03T02:07:11.763Z,35.47
2019-05-03T02:09:37.814Z,35.44
2019-05-03T02:12:04.032Z,35.44
2019-05-03T02:14:31.751Z,35.43
2019-05-03T02:16:57.868Z,35.41
2019-05-03T02:19:23.975Z,35.40
2019-05-03T02:21:49.990Z,35.38
2019-05-03T02:24:16.521Z,35.36
2019-05-03T02:26:42.663Z,35.37
2019-05-03T02:29:08.726Z,35.33
2019-05-03T02:31:34.737Z,35.31
2019-05-03T02:34:03.258Z,35.30
2019-05-03T02:36:28.777Z,35.30
2019-05-03T02:38:54.695Z,35.30
2019-05-03T02:41:22.745Z,35.28
2019-05-03T02:43:50.605Z,35.26
2019-05-03T02:46:27.253Z,35.26
2019-05-03T02:48:55.811Z,35.23
2019-05-03T02:51:21.987Z,35.21
2019-05-03T02:53:47.989Z,35.21
2019-05-03T02:56:21.945Z,35.18
2019-05-03T02:58:41.945Z,35.16
2019-05-03T03:01:08.276Z,35.12
2019-05-03T03:03:36.335Z,35.13
2019-05-03T03:06:06.699Z,35.10
2019-05-03T03:08:33.400Z,35.10
2019-05-03T03:11:06.032Z,35.07
2019-05-03T03:13:36.863Z,35.08
2019-05-03T03:16:07.569Z,35.06
2019-05-03T03:18:36.435Z,35.06
2019-05-03T03:21:05.838Z,35.03
2019-05-03T03:23:35.479Z,35.03
2019-05-03T03:26:02.696Z,35.09
2019-05-03T03:28:32.440Z,35.06
2019-05-03T03:31:28.228Z,35.04
2019-05-03T03:33:59.292Z,35.03
2019-05-03T03:36:40.768Z,35.01
2019-05-03T03:38:55.389Z,35.01
2019-05-03T03:41:21.247Z,34.99
2019-05-03T03:43:49.663Z,34.98
2019-05-03T03:46:17.562Z,34.94
2019-05-03T03:48:46.074Z,34.95
2019-05-03T03:51:15.524Z,34.92
2019-05-03T03:53:46.469Z,34.93
2019-05-03T03:56:15.974Z,34.91
2019-05-03T03:58:42.442Z,34.90
2019-05-03T04:01:09.133Z,34.92
2019-05-03T04:03:36.175Z,34.91
2019-05-03T04:06:02.570Z,34.91
2019-05-03T04:08:29.568Z,34.89
2019-05-03T04:10:56.026Z,34.89
2019-05-03T04:13:25.534Z,34.87
2019-05-03T04:16:02.370Z,34.89
2019-05-03T04:18:30.383Z,34.86
2019-05-03T04:20:56.603Z,34.88
2019-05-03T04:23:22.817Z,34.85
2019-05-03T04:25:49.029Z,34.87
2019-05-03T04:28:16.270Z,34.87
2019-05-03T04:30:42.487Z,34.86
2019-05-03T04:33:08.590Z,34.84
2019-05-03T04:35:36.349Z,34.86
2019-05-03T04:38:05.320Z,34.84
2019-05-03T04:40:30.826Z,34.84
2019-05-03T04:42:56.981Z,34.87
2019-05-03T04:45:25.277Z,34.84
2019-05-03T04:47:51.113Z,34.83
2019-05-03T04:50:17.229Z,34.87
2019-05-03T04:52:46.037Z,34.84
2019-05-03T04:55:11.139Z,34.82
2019-05-03T04:57:45.019Z,34.82
2019-05-03T05:00:11.561Z,34.80
2019-05-03T05:02:37.467Z,34.81
2019-05-03T05:05:06.145Z,34.80
2019-05-03T05:07:34.859Z,34.79
2019-05-03T05:10:00.420Z,34.80
2019-05-03T05:12:26.491Z,34.80
2019-05-03T05:14:52.590Z,34.79
2019-05-03T05:17:20.501Z,34.78
2019-05-03T05:19:48.554Z,34.78
2019-05-03T05:22:25.123Z,34.76
2019-05-03T05:24:51.559Z,34.78
2019-05-03T05:27:22.335Z,34.76
2019-05-03T05:29:48.383Z,34.74
2019-05-03T05:32:14.550Z,34.77
2019-05-03T05:34:40.785Z,34.78
2019-05-03T05:37:06.905Z,34.76
2019-05-03T05:39:33.038Z,34.75
2019-05-03T05:41:59.082Z,34.73
2019-05-03T05:44:25.219Z,34.72
2019-05-03T05:46:54.303Z,34.71
2019-05-03T05:49:39.076Z,34.69
2019-05-03T05:52:05.062Z,34.70
2019-05-03T05:54:30.969Z,34.70
2019-05-03T05:57:01.642Z,34.70
2019-05-03T05:59:45.353Z,34.71
2019-05-03T06:02:11.695Z,34.70
2019-05-03T06:04:37.813Z,34.69
2019-05-03T06:07:11.694Z,34.71
2019-05-03T06:09:39.499Z,34.71
2019-05-03T06:12:07.565Z,34.72
2019-05-03T06:14:35.462Z,34.73
2019-05-03T06:17:06.332Z,34.73
2019-05-03T06:19:34.585Z,34.74
2019-05-03T06:22:09.022Z,34.74
2019-05-03T06:24:36.996Z,34.77
2019-05-03T06:27:05.169Z,34.77
2019-05-03T06:29:31.307Z,34.77
2019-05-03T06:32:07.974Z,34.80
2019-05-03T06:34:35.455Z,34.80
2019-05-03T06:37:09.229Z,34.81
2019-05-03T06:39:45.242Z,34.85
2019-05-03T06:42:16.040Z,34.85
2019-05-03T06:44:39.211Z,34.88
2019-05-03T06:47:06.722Z,34.89
2019-05-03T06:49:34.553Z,34.90
2019-05-03T06:52:00.859Z,34.92
2019-05-03T06:54:29.965Z,34.92
2019-05-03T06:56:55.503Z,34.93
2019-05-03T06:59:25.005Z,34.94
2019-05-03T07:01:55.944Z,34.93
2019-05-03T07:04:42.163Z,34.93
2019-05-03T07:07:10.196Z,34.94
2019-05-03T07:09:40.943Z,34.96
2019-05-03T07:12:06.881Z,34.98
2019-05-03T07:14:34.876Z,34.98
2019-05-03T07:17:00.998Z,35.01
2019-05-03T07:19:27.138Z,35.02
2019-05-03T07:21:54.610Z,35.03
2019-05-03T07:24:20.683Z,35.06
2019-05-03T07:26:46.595Z,35.09
2019-05-03T07:29:12.710Z,35.11
2019-05-03T07:31:38.924Z,35.19
2019-05-03T07:34:05.285Z,35.19
2019-05-03T07:36:31.234Z,35.22
2019-05-03T07:38:57.261Z,35.22
2019-05-03T07:41:26.521Z,35.26
2019-05-03T07:43:51.276Z,35.28
2019-05-03T07:46:17.395Z,35.30
2019-05-03T07:48:45.540Z,35.40
2019-05-03T07:51:11.477Z,35.66
2019-05-03T07:53:37.587Z,35.75
2019-05-03T07:56:05.605Z,35.79
2019-05-03T07:58:34.596Z,35.80
2019-05-03T08:01:07.070Z,35.85
2019-05-03T08:03:30.703Z,35.86
2019-05-03T08:05:57.129Z,35.87
2019-05-03T08:08:25.196Z,35.89
2019-05-03T08:10:51.632Z,35.92
2019-05-03T08:13:20.354Z,35.92
2019-05-03T08:15:46.957Z,35.92
2019-05-03T08:18:15.389Z,35.92
2019-05-03T08:20:41.840Z,35.95
2019-05-03T08:23:23.664Z,36.09
2019-05-03T08:25:39.359Z,36.25
2019-05-03T08:28:05.707Z,36.33
2019-05-03T08:30:38.195Z,36.45
2019-05-03T08:33:24.880Z,36.62
2019-05-03T08:35:55.473Z,36.76
2019-05-03T08:38:22.971Z,36.97
2019-05-03T08:40:49.402Z,37.09
2019-05-03T08:43:15.722Z,37.20
2019-05-03T08:45:41.843Z,37.32
2019-05-03T08:48:08.083Z,37.38
2019-05-03T08:50:34.729Z,37.46
2019-05-03T08:53:00.930Z,37.53
2019-05-03T08:55:27.048Z,37.63
2019-05-03T08:57:55.149Z,37.64
2019-05-03T09:00:24.827Z,37.67
2019-05-03T09:02:51.109Z,37.67
2019-05-03T09:05:18.568Z,37.66
2019-05-03T09:07:44.868Z,37.69
2019-05-03T09:10:18.825Z,38.80
2019-05-03T09:13:04.113Z,39.40
2019-05-03T09:15:31.214Z,39.65
2019-05-03T09:17:57.119Z,40.04
2019-05-03T09:20:24.988Z,40.27
2019-05-03T09:22:51.140Z,40.17
2019-05-03T09:25:17.067Z,39.98
2019-05-03T09:27:44.675Z,39.83
2019-05-03T09:30:11.587Z,39.74
2019-05-03T09:32:37.724Z,39.60
2019-05-03T09:35:05.582Z,39.45
2019-05-03T09:37:31.775Z,39.35
2019-05-03T09:39:57.906Z,39.26
2019-05-03T09:42:24.784Z,39.19
2019-05-03T09:44:52.537Z,39.08
2019-05-03T09:47:18.647Z,38.98
2019-05-03T09:49:45.391Z,38.86
2019-05-03T09:52:11.574Z,38.76
2019-05-03T09:54:39.486Z,38.59
2019-05-03T09:57:05.936Z,38.50
2019-05-03T09:59:31.878Z,38.40
2019-05-03T10:01:58.582Z,38.33
2019-05-03T10:04:25.541Z,38.28
2019-05-03T10:06:51.726Z,38.23
2019-05-03T10:09:17.935Z,38.19
2019-05-03T10:11:45.925Z,38.18
2019-05-03T10:14:15.739Z,38.16
2019-05-03T10:17:00.216Z,38.19
2019-05-03T10:19:37.144Z,38.14
2019-05-03T10:21:54.836Z,38.12
2019-05-03T10:24:20.975Z,38.17
2019-05-03T10:26:47.013Z,38.17
2019-05-03T10:29:15.131Z,38.14
2019-05-03T10:31:44.876Z,38.16
2019-05-03T10:34:11.103Z,38.20
2019-05-03T10:36:37.137Z,38.18
2019-05-03T10:39:04.947Z,38.19
2019-05-03T10:41:30.974Z,38.14
2019-05-03T10:43:57.090Z,38.13
2019-05-03T10:46:25.068Z,38.15
2019-05-03T10:48:51.149Z,38.14
2019-05-03T10:51:17.253Z,38.13
2019-05-03T10:53:47.842Z,38.10
2019-05-03T10:56:22.763Z,38.10
2019-05-03T10:58:49.527Z,38.08
2019-05-03T11:01:17.567Z,38.08
2019-05-03T11:03:45.172Z,38.07
2019-05-03T11:06:11.391Z,38.05
2019-05-03T11:08:37.404Z,38.01
2019-05-03T11:11:05.779Z,38.01
2019-05-03T11:13:31.501Z,38.00
2019-05-03T11:15:57.490Z,38.01
2019-05-03T11:18:25.282Z,38.00
2019-05-03T11:20:51.452Z,38.00
2019-05-03T11:23:17.459Z,37.98
2019-05-03T11:25:45.223Z,37.99
2019-05-03T11:28:13.421Z,37.97
2019-05-03T11:30:51.940Z,37.97
2019-05-03T11:33:09.297Z,37.97
2019-05-03T11:35:39.868Z,37.97
2019-05-03T11:38:15.088Z,37.96
2019-05-03T11:40:41.171Z,37.94
2019-05-03T11:43:07.281Z,37.94
2019-05-03T11:45:35.364Z,37.96
2019-05-03T11:48:01.309Z,37.96
2019-05-03T11:50:27.441Z,38.00
2019-05-03T11:52:55.370Z,38.01
2019-05-03T11:55:21.259Z,38.04
2019-05-03T11:57:47.258Z,38.03
2019-05-03T12:00:15.567Z,38.06
2019-05-03T12:02:49.379Z,38.07
2019-05-03T12:05:17.396Z,38.09
2019-05-03T12:07:45.341Z,38.07
2019-05-03T12:10:20.601Z,38.06
2019-05-03T12:12:44.896Z,38.06
2019-05-03T12:15:11.197Z,38.07
2019-05-03T12:17:50.859Z,38.05
2019-05-03T12:20:09.192Z,38.07
2019-05-03T12:22:36.115Z,38.05
2019-05-03T12:25:10.073Z,38.07
2019-05-03T12:27:34.923Z,38.05
2019-05-03T12:30:00.844Z,38.06
2019-05-03T12:32:26.861Z,38.06
2019-05-03T12:34:54.983Z,38.04
2019-05-03T12:37:20.771Z,38.04
2019-05-03T12:39:46.682Z,38.03
2019-05-03T12:42:14.763Z,38.00
2019-05-03T12:44:40.814Z,38.03
2019-05-03T12:47:06.960Z,38.01
2019-05-03T12:49:33.056Z,38.00
2019-05-03T12:51:58.992Z,38.00
2019-05-03T12:54:24.937Z,38.00
2019-05-03T12:56:50.841Z,37.98
2019-05-03T12:59:30.718Z,37.99
2019-05-03T13:01:58.627Z,37.98
2019-05-03T13:04:26.560Z,37.99
2019-05-03T13:07:11.170Z,38.00
2019-05-03T13:09:39.108Z,38.00
2019-05-03T13:12:06.307Z,38.00
2019-05-03T13:14:34.515Z,38.03
2019-05-03T13:17:00.374Z,38.08
2019-05-03T13:19:26.517Z,38.12
2019-05-03T13:21:52.631Z,38.15
2019-05-03T13:24:23.313Z,38.15
2019-05-03T13:26:46.813Z,38.17
2019-05-03T13:29:15.148Z,38.20
2019-05-03T13:31:40.626Z,38.20
2019-05-03T13:34:06.683Z,38.20
2019-05-03T13:36:34.761Z,38.20
2019-05-03T13:39:11.430Z,38.20
2019-05-03T13:41:28.645Z,38.20
2019-05-03T13:43:54.961Z,38.16
2019-05-03T13:46:21.198Z,38.16
2019-05-03T13:48:49.259Z,38.14
2019-05-03T13:51:15.324Z,38.12
2019-05-03T13:53:41.342Z,38.09
2019-05-03T13:56:07.550Z,38.07
2019-05-03T13:58:35.588Z,38.07
2019-05-03T14:01:01.694Z,38.08
2019-05-03T14:03:27.634Z,38.08
2019-05-03T14:05:55.190Z,38.08
2019-05-03T14:08:21.247Z,38.05
2019-05-03T14:10:47.258Z,38.05
2019-05-03T14:13:13.399Z,38.05
2019-05-03T14:15:39.402Z,38.02
2019-05-03T14:18:06.080Z,38.01
2019-05-03T14:20:43.213Z,38.02
2019-05-03T14:23:09.428Z,38.02
2019-05-03T14:25:35.465Z,38.00
2019-05-03T14:28:01.578Z,38.00
2019-05-03T14:30:27.687Z,38.01
2019-05-03T14:32:55.594Z,38.04
2019-05-03T14:35:21.529Z,38.05
2019-05-03T14:37:47.538Z,38.06
2019-05-03T14:40:14.646Z,38.06
2019-05-03T14:42:40.798Z,38.08
2019-05-03T14:45:07.312Z,38.10
2019-05-03T14:47:33.438Z,38.12
2019-05-03T14:49:59.574Z,38.11
2019-05-03T14:52:28.407Z,38.14
2019-05-03T14:54:55.423Z,38.14
2019-05-03T14:57:26.152Z,38.14
2019-05-03T15:00:02.976Z,38.16
2019-05-03T15:02:47.511Z,38.16
2019-05-03T15:05:14.745Z,38.16
2019-05-03T15:07:40.681Z,38.18
2019-05-03T15:10:09.100Z,38.21
2019-05-03T15:12:36.071Z,38.23
2019-05-03T15:15:06.298Z,38.26
2019-05-03T15:17:32.354Z,38.26
2019-05-03T15:19:58.460Z,38.26
2019-05-03T15:22:25.359Z,38.27
2019-05-03T15:24:51.628Z,38.28
2019-05-03T15:27:18.139Z,38.29
2019-05-03T15:29:44.864Z,38.32
2019-05-03T15:32:15.348Z,38.33
2019-05-03T15:34:41.071Z,38.32
2019-05-03T15:37:07.074Z,38.30
2019-05-03T15:39:34.797Z,38.31
2019-05-03T15:42:01.126Z,38.30
2019-05-03T15:44:29.207Z,38.30
2019-05-03T15:46:57.300Z,38.31
2019-05-03T15:49:27.411Z,38.31
2019-05-03T15:51:53.838Z,38.30
2019-05-03T15:54:19.545Z,38.36
2019-05-03T15:56:45.470Z,38.35
2019-05-03T15:59:11.588Z,38.35
2019-05-03T16:01:37.498Z,38.34
2019-05-03T16:04:04.822Z,38.36
2019-05-03T16:06:31.104Z,38.35
2019-05-03T16:08:57.202Z,38.35
2019-05-03T16:11:25.219Z,38.37
2019-05-03T16:13:51.140Z,38.38
2019-05-03T16:16:17.255Z,38.39
2019-05-03T16:18:44.874Z,38.39
2019-05-03T16:21:11.179Z,38.39
2019-05-03T16:23:37.353Z,38.40
2019-05-03T16:26:04.965Z,38.43
2019-05-03T16:28:42.027Z,38.44
2019-05-03T16:31:12.898Z,38.42
2019-05-03T16:33:38.907Z,38.45
2019-05-03T16:36:05.521Z,38.44
2019-05-03T16:38:31.728Z,38.47
2019-05-03T16:40:58.145Z,38.46
2019-05-03T16:43:25.629Z,38.47
2019-05-03T16:45:51.908Z,38.47
2019-05-03T16:48:18.502Z,38.49
2019-05-03T16:50:45.198Z,38.51
2019-05-03T16:53:11.212Z,38.52
2019-05-03T16:55:37.319Z,38.54
2019-05-03T16:58:03.457Z,38.56
2019-05-03T17:00:29.564Z,38.56
2019-05-03T17:02:55.590Z,38.56
2019-05-03T17:05:41.496Z,38.53
2019-05-03T17:08:26.299Z,38.52
2019-05-03T17:10:57.079Z,38.48
2019-05-03T17:13:25.165Z,38.49
2019-05-03T17:15:51.307Z,38.48
2019-05-03T17:18:17.383Z,38.49
2019-05-03T17:20:45.268Z,38.47
2019-05-03T17:23:11.490Z,38.45
2019-05-03T17:25:37.605Z,38.43
2019-05-03T17:28:05.027Z,38.41
2019-05-03T17:30:37.198Z,38.38
2019-05-03T17:33:01.897Z,38.36
2019-05-03T17:35:27.998Z,38.33
2019-05-03T17:37:54.621Z,38.32
2019-05-03T17:40:26.426Z,38.28
2019-05-03T17:42:56.970Z,38.26
2019-05-03T17:45:25.363Z,38.25
2019-05-03T17:47:51.526Z,38.23
2019-05-03T17:50:17.551Z,38.22
2019-05-03T17:52:48.350Z,38.22
2019-05-03T17:55:35.093Z,38.21
2019-05-03T17:58:04.519Z,38.20
2019-05-03T18:00:32.690Z,38.18
2019-05-03T18:02:58.890Z,38.19
2019-05-03T18:05:44.912Z,38.21
2019-05-03T18:08:12.997Z,38.21
2019-05-03T18:10:40.995Z,38.19
2019-05-03T18:13:07.126Z,38.21
2019-05-03T18:15:34.527Z,38.20
2019-05-03T18:18:00.655Z,38.22
2019-05-03T18:20:26.664Z,38.21
2019-05-03T18:22:54.491Z,38.23
2019-05-03T18:25:20.775Z,38.24
2019-05-03T18:27:46.817Z,38.25
2019-05-03T18:30:13.014Z,38.35
2019-05-03T18:32:39.014Z,38.32
2019-05-03T18:35:05.223Z,38.33
2019-05-03T18:37:31.422Z,38.33
2019-05-03T18:39:58.830Z,38.33
2019-05-03T18:42:30.796Z,38.38
2019-05-03T18:44:58.915Z,38.41
2019-05-03T18:47:26.521Z,38.41
2019-05-03T18:49:52.668Z,38.43
2019-05-03T18:52:18.778Z,38.44
2019-05-03T18:54:44.807Z,38.45
2019-05-03T18:57:10.912Z,38.44
2019-05-03T18:59:36.808Z,38.45
2019-05-03T19:02:05.314Z,38.44
2019-05-03T19:04:37.894Z,38.41
2019-05-03T19:07:07.270Z,38.40
2019-05-03T19:09:35.167Z,38.37
2019-05-03T19:12:06.265Z,38.37
2019-05-03T19:14:32.583Z,38.35
2019-05-03T19:17:05.123Z,38.33
2019-05-03T19:19:35.145Z,38.32
2019-05-03T19:22:01.366Z,38.32
2019-05-03T19:24:27.310Z,38.29
2019-05-03T19:26:54.380Z,38.28
2019-05-03T19:29:20.446Z,38.26
2019-05-03T19:31:46.561Z,38.27
2019-05-03T19:34:12.685Z,38.24
2019-05-03T19:36:38.793Z,38.26
2019-05-03T19:39:05.249Z,38.22
2019-05-03T19:41:31.358Z,38.17
2019-05-03T19:43:57.420Z,38.16
2019-05-03T19:46:24.832Z,38.16
2019-05-03T19:48:51.267Z,38.13
2019-05-03T19:51:17.394Z,38.12
2019-05-03T19:53:45.296Z,38.12
2019-05-03T19:56:11.331Z,38.12
2019-05-03T19:58:37.337Z,38.11
2019-05-03T20:01:20.002Z,38.05
2019-05-03T20:04:02.749Z,38.00
2019-05-03T20:06:30.756Z,37.98
2019-05-03T20:08:58.663Z,37.92
2019-05-03T20:11:25.240Z,37.86
2019-05-03T20:13:51.402Z,37.80
2019-05-03T20:16:17.518Z,37.76
2019-05-03T20:18:45.387Z,37.72
2019-05-03T20:21:11.551Z,37.70
2019-05-03T20:23:37.561Z,37.67
2019-05-03T20:26:05.028Z,37.63
2019-05-03T20:28:33.133Z,37.65
2019-05-03T20:30:59.067Z,37.63
2019-05-03T20:33:25.193Z,37.61
2019-05-03T20:35:53.787Z,37.63
2019-05-03T20:38:19.303Z,37.59
2019-05-03T20:40:45.410Z,37.61
2019-05-03T20:43:13.326Z,37.60
2019-05-03T20:45:41.384Z,37.62
2019-05-03T20:48:09.183Z,37.62
2019-05-03T20:50:35.359Z,37.64
2019-05-03T20:53:01.436Z,37.64
2019-05-03T20:55:27.488Z,37.65
2019-05-03T20:57:54.960Z,37.67
2019-05-03T21:00:25.412Z,37.68
2019-05-03T21:02:54.104Z,37.70
2019-05-03T21:05:27.838Z,37.73
2019-05-03T21:07:47.235Z,37.78
2019-05-03T21:10:15.451Z,37.81
2019-05-03T21:12:41.495Z,37.81
2019-05-03T21:15:09.902Z,37.82
2019-05-03T21:17:40.467Z,37.84
2019-05-03T21:20:10.993Z,37.87
2019-05-03T21:22:38.125Z,37.85
2019-05-03T21:25:09.071Z,37.90
2019-05-03T21:27:35.187Z,37.89
2019-05-03T21:30:01.686Z,37.90
2019-05-03T21:32:27.593Z,37.90
2019-05-03T21:34:55.638Z,37.95
2019-05-03T21:37:21.712Z,37.95
2019-05-03T21:39:47.744Z,37.95
2019-05-03T21:42:15.164Z,37.96
2019-05-03T21:44:41.406Z,37.96
2019-05-03T21:47:12.218Z,37.97
2019-05-03T21:49:40.280Z,37.99
2019-05-03T21:52:06.291Z,38.00
2019-05-03T21:54:32.355Z,38.00
2019-05-03T21:56:58.469Z,38.02
2019-05-03T21:59:26.487Z,38.02
2019-05-03T22:01:54.613Z,38.02
2019-05-03T22:04:20.647Z,38.02
2019-05-03T22:06:46.563Z,38.04
2019-05-03T22:09:12.580Z,38.07
2019-05-03T22:11:38.496Z,38.05
2019-05-03T22:14:06.405Z,38.05
2019-05-03T22:16:46.295Z,38.06
2019-05-03T22:19:16.326Z,38.03
2019-05-03T22:21:45.347Z,38.01
2019-05-03T22:24:14.793Z,38.03
2019-05-03T22:26:54.997Z,38.03
2019-05-03T22:29:21.002Z,38.03
2019-05-03T22:31:47.124Z,38.04
2019-05-03T22:34:14.922Z,38.03
2019-05-03T22:36:41.062Z,38.03
2019-05-03T22:39:07.395Z,38.02
2019-05-03T22:41:34.805Z,38.02
2019-05-03T22:44:01.077Z,38.03
2019-05-03T22:46:27.092Z,38.04
2019-05-03T22:48:55.099Z,38.00
2019-05-03T22:51:21.229Z,37.99
2019-05-03T22:53:47.149Z,37.99
2019-05-03T22:56:14.438Z,37.97
2019-05-03T22:58:40.546Z,38.00
2019-05-03T23:01:06.553Z,37.95
2019-05-03T23:03:35.437Z,37.95
2019-05-03T23:06:01.425Z,37.92
2019-05-03T23:08:27.371Z,38.00
2019-05-03T23:10:54.732Z,37.93
2019-05-03T23:13:21.022Z,37.91
2019-05-03T23:15:47.034Z,37.92
2019-05-03T23:18:13.134Z,37.88
2019-05-03T23:20:44.804Z,37.91
2019-05-03T23:23:14.468Z,37.86
2019-05-03T23:25:40.455Z,37.85
2019-05-03T23:28:06.560Z,37.81
2019-05-03T23:30:32.783Z,37.78
2019-05-03T23:32:58.889Z,37.76
2019-05-03T23:35:25.034Z,37.74
2019-05-03T23:37:50.934Z,37.73
2019-05-03T23:40:16.965Z,37.69
2019-05-03T23:42:42.974Z,37.67
2019-05-03T23:45:09.110Z,37.64
2019-05-03T23:47:40.044Z,37.60
2019-05-03T23:50:07.842Z,37.59
2019-05-03T23:52:35.260Z,37.58
2019-05-03T23:55:05.574Z,37.56
2019-05-03T23:57:31.498Z,37.52
2019-05-03T23:59:57.635Z,37.53
